createdAt,value
2022-08-09T00:02:19.234Z,15.66
2022-08-09T00:12:24.567Z,15.61
2022-08-09T00:22:31.703Z,15.54
2022-08-09T00:32:40.054Z,15.43
2022-08-09T00:44:15.502Z,15.32
2022-08-09T00:53:10.663Z,15.21
2022-08-09T01:03:21.248Z,15.08
2022-08-09T01:13:59.549Z,14.96
2022-08-09T01:24:10.418Z,14.89
2022-08-09T01:34:20.837Z,14.84
2022-08-09T01:44:25.631Z,14.75
2022-08-09T01:54:33.326Z,14.67
2022-08-09T02:04:40.597Z,14.55
2022-08-09T02:14:53.249Z,14.46
2022-08-09T02:25:01.458Z,14.46
2022-08-09T02:35:17.838Z,14.39
2022-08-09T02:45:29.625Z,14.30
2022-08-09T02:55:53.633Z,14.20
2022-08-09T03:06:02.510Z,14.12
2022-08-09T03:16:07.844Z,14.02
2022-08-09T03:26:11.137Z,13.94
2022-08-09T03:36:19.439Z,13.86
2022-08-09T03:46:27.401Z,13.82
2022-08-09T03:56:34.720Z,13.74
2022-08-09T04:06:38.601Z,13.68
2022-08-09T04:16:48.574Z,13.62
2022-08-09T04:26:51.778Z,13.58
2022-08-09T04:36:56.100Z,13.56
2022-08-09T04:47:04.628Z,13.55
2022-08-09T04:57:12.323Z,13.60
2022-08-09T05:07:19.172Z,13.72
2022-08-09T05:18:50.735Z,13.86
2022-08-09T05:27:48.082Z,14.00
2022-08-09T05:37:52.490Z,14.25
2022-08-09T05:48:01.311Z,14.53
2022-08-09T05:58:07.253Z,14.82
2022-08-09T06:08:11.012Z,15.13
2022-08-09T06:18:15.942Z,15.49
2022-08-09T06:28:19.782Z,15.84
2022-08-09T06:38:36.315Z,16.22
2022-08-09T06:48:42.840Z,16.59
2022-08-09T07:00:49.124Z,16.94
2022-08-09T07:09:53.470Z,17.33
2022-08-09T07:19:36.670Z,17.65
2022-08-09T07:29:43.022Z,18.14
2022-08-09T07:39:47.433Z,18.45
2022-08-09T07:50:05.314Z,18.87
2022-08-09T08:00:13.383Z,19.23
2022-08-09T08:10:27.245Z,19.63
2022-08-09T08:20:33.422Z,19.98
2022-08-09T08:30:36.571Z,20.30
2022-08-09T08:40:41.593Z,20.39
2022-08-09T08:50:45.468Z,20.85
2022-08-09T09:00:56.943Z,21.28
2022-08-09T09:11:03.800Z,21.56
2022-08-09T09:21:09.363Z,21.89
2022-08-09T09:31:17.571Z,22.18
2022-08-09T09:41:49.205Z,22.35
2022-08-09T09:52:02.858Z,22.50
2022-08-09T10:02:07.926Z,22.73
2022-08-09T10:12:14.734Z,23.04
2022-08-09T10:22:46.104Z,23.41
2022-08-09T10:32:56.002Z,23.53
2022-08-09T10:43:03.718Z,23.85
2022-08-09T10:53:21.179Z,24.08
2022-08-09T11:03:51.478Z,24.09
2022-08-09T11:14:35.313Z,24.22
2022-08-09T11:25:05.600Z,24.49
2022-08-09T11:35:16.941Z,24.76
2022-08-09T11:45:41.949Z,25.12
2022-08-09T11:55:53.459Z,25.10
2022-08-09T12:06:32.834Z,25.52
2022-08-09T12:16:40.386Z,25.63
2022-08-09T12:29:11.581Z,25.81
2022-08-09T12:37:23.847Z,25.87
2022-08-09T12:47:58.797Z,26.15
2022-08-09T12:58:24.327Z,26.17
2022-08-09T13:08:40.726Z,26.37
2022-08-09T13:18:48.689Z,26.44
2022-08-09T13:29:08.817Z,26.71
2022-08-09T13:41:18.817Z,26.29
2022-08-09T13:49:56.034Z,26.82
2022-08-09T14:00:15.614Z,26.94
2022-08-09T14:10:46.271Z,27.26
2022-08-09T14:20:44.868Z,28.04
2022-08-09T14:30:53.444Z,28.11
2022-08-09T14:41:26.650Z,28.59
2022-08-09T14:51:27.169Z,28.97
2022-08-09T15:01:33.078Z,29.26
2022-08-09T15:11:37.540Z,28.25
2022-08-09T15:21:56.702Z,28.64
2022-08-09T15:32:29.649Z,28.02
2022-08-09T15:42:39.627Z,27.19
2022-08-09T15:53:06.748Z,26.33
2022-08-09T16:03:29.453Z,26.02
2022-08-09T16:14:04.814Z,25.92
2022-08-09T16:24:33.229Z,25.55
2022-08-09T16:34:56.471Z,25.46
2022-08-09T16:45:01.436Z,25.37
2022-08-09T16:55:08.070Z,25.31
2022-08-09T17:05:19.617Z,25.23
2022-08-09T17:15:31.233Z,25.15
2022-08-09T17:25:52.913Z,25.05
2022-08-09T17:35:57.830Z,24.96
2022-08-09T17:46:06.728Z,24.83
2022-08-09T17:56:12.445Z,25.09
2022-08-09T18:06:30.885Z,24.90
2022-08-09T18:16:39.371Z,24.85
2022-08-09T18:27:10.268Z,24.48
2022-08-09T18:37:47.752Z,24.12
2022-08-09T18:47:45.085Z,23.79
2022-08-09T18:57:51.816Z,23.47
2022-08-09T19:08:10.046Z,23.18
2022-08-09T19:18:17.115Z,22.86
2022-08-09T19:28:38.112Z,22.59
2022-08-09T19:38:42.896Z,22.29
2022-08-09T19:49:02.162Z,22.01
2022-08-09T19:59:40.110Z,21.71
2022-08-09T20:09:44.701Z,21.51
2022-08-09T20:19:54.890Z,21.28
2022-08-09T20:29:58.856Z,21.08
2022-08-09T20:40:14.974Z,20.85
2022-08-09T20:50:47.404Z,20.60
2022-08-09T21:00:45.353Z,20.40
2022-08-09T21:11:06.341Z,20.22
2022-08-09T21:21:17.545Z,20.14
2022-08-09T21:31:20.692Z,19.95
2022-08-09T21:41:59.759Z,19.73
2022-08-09T21:51:49.184Z,19.56
2022-08-09T22:02:00.401Z,19.39
2022-08-09T22:12:15.404Z,19.18
2022-08-09T22:22:24.230Z,18.99
2022-08-09T22:32:31.506Z,18.83
2022-08-09T22:42:37.747Z,18.65
2022-08-09T22:52:41.681Z,18.48
2022-08-09T23:02:47.858Z,18.29
2022-08-09T23:12:51.143Z,18.10
2022-08-09T23:22:55.513Z,17.88
2022-08-09T23:32:58.449Z,17.70
2022-08-09T23:43:02.693Z,17.62
2022-08-09T23:53:05.631Z,17.45
